Home > Products > Valid Products > TAF

000
FTUS43 KIWX 260500
TAFFWA
TAF
KFWA 260520Z 2606/2706 VRB03KT P6SM OVC015
     FM261600 09005KT P6SM BKN025=



000
FTUS43 KIWX 252300
TAFFWA
TAF
KFWA 252323Z 2600/2624 VRB03KT P6SM OVC015
     FM261800 09004KT P6SM BKN025=



000
FTUS43 KIWX 251700
TAFFWA
TAF
KFWA 251724Z 2518/2618 26012KT P6SM OVC025
      TEMPO 2518/2520 P6SM OVC016
     FM260000 24004KT P6SM SCT035=



000
FTUS43 KIWX 251100
TAFFWA
TAF
KFWA 251140Z 2512/2612 25013G21KT P6SM SCT018 OVC022
      TEMPO 2512/2516 OVC018
     FM251800 26012KT P6SM BKN035
     FM260000 24004KT P6SM SCT035=



000
FTUS43 KIWX 250500
TAFFWA
TAF
KFWA 250534Z 2506/2606 25017G31KT P6SM -SHSN OVC025
     FM250900 25015G25KT P6SM OVC025
     FM251200 25012G18KT P6SM -SN BKN025
     FM251800 26012KT P6SM BKN035=



000
FTUS43 KIWX 242300
TAFFWA
TAF
KFWA 242340Z 2500/2524 24022G38KT P6SM OVC020
     FM250600 25015G25KT P6SM -SHSN OVC025
     FM251800 26012KT P6SM BKN030=



000
FTUS43 KIWX 241700
TAFFWA
TAF
KFWA 241730Z 2418/2518 23036G44KT P6SM VCSH OVC017
     FM250000 24020G31KT 6SM -SHSN OVC020
     FM250600 25014G20KT P6SM OVC025=



000
FTUS43 KIWX 241400 AAA
TAFFWA
TAF AMD
KFWA 241453Z 2415/2512 23017G31KT P6SM VCSH SCT012 OVC025
     FM241600 24025G40KT 6SM BR VCSH OVC015
     FM250000 24020G31KT P6SM OVC020
     FM250600 25014G20KT P6SM OVC025=



000
FTUS43 KIWX 241100
TAFFWA
TAF
KFWA 241126Z 2412/2512 20014G23KT 5SM -SHRA BR OVC018
      TEMPO 2412/2413 2SM SHRA BR OVC009
     FM241300 23017G31KT 4SM -SHRA BR OVC012
     FM241500 24025G40KT 6SM BR VCSH OVC015
     FM250000 24020G31KT P6SM OVC020
     FM250600 25013G20KT P6SM OVC025=



000
FTUS43 KIWX 240500
TAFFWA
TAF
KFWA 240539Z 2406/2506 20013G21KT 5SM -RA BR OVC011
      TEMPO 2409/2413 -RA OVC008
     FM241300 23016G29KT 4SM -RA BR OVC008
     FM241500 24025G40KT 6SM -RA BR OVC010
     FM242000 24025G38KT P6SM -RASN OVC015
     FM250000 24020G31KT P6SM VCSH OVC020=



000
FTUS43 KIWX 232300
TAFFWA
TAF
KFWA 232330Z 2400/2424 12014KT 3SM RA BR OVC012 WS020/16050KT
      TEMPO 2401/2405 2SM +RA BR OVC006
     FM240600 18015G23KT 5SM -RA BR OVC006
     FM241600 24023G34KT P6SM -RA OVC010
     FM242000 24025G38KT P6SM -RASN OVC020=



000
FTUS43 KIWX 232000 AAA
TAFFWA
TAF AMD
KFWA 232036Z 2321/2418 14010KT 4SM RA BR SCT015 OVC020
      WS020/16050KT
      TEMPO 2321/2323 2SM +RA BR OVC010
     FM232300 12011KT 3SM RA BR OVC008 WS020/16055KT
      TEMPO 2401/2405 2SM +RA BR OVC004
     FM240500 17013G20KT 5SM -RA BR OVC005
     FM240800 22015G23KT 5SM -RA BR OVC006
     FM241500 24024G34KT P6SM OVC010=



000
FTUS43 KIWX 231700 RRA
TAFFWA
TAF
KFWA 231741Z 2318/2418 15009KT P6SM SCT080 WS020/16050KT
     FM232100 13012KT 5SM -SHRA BR OVC015 WS020/16055KT
     FM232300 12011KT 3SM RA BR OVC008 WS020/16055KT
      TEMPO 2401/2405 2SM +RA BR OVC004
     FM240500 17013G20KT 5SM -RA BR OVC005
     FM240800 22015G23KT 5SM -RA BR OVC006
     FM241500 24024G34KT P6SM OVC010=



000
FTUS43 KIWX 231100
TAFFWA
TAF
KFWA 231126Z 2312/2412 16011KT P6SM OVC035
      TEMPO 2312/2313 -SHRA
     FM231500 16012KT P6SM OVC035
     FM232000 13012KT 5SM -SHRA BR OVC015
     FM232300 12012KT 3SM RA BR OVC008 WS020/18050KT=



    US Dept of Commerce
    National Oceanic and Atmospheric Administration
    National Weather Service
    1325 East West Highway
    Silver Spring, MD 20910
    Page Author: NWS Internet Services Team
Disclaimer
Information Quality
Credits
Glossary
Privacy Policy
Freedom of Information Act (FOIA)
About Us
Career Opportunities